sensor_id;sensor_type;location;lat;lon;timestamp;P1;durP1;ratioP1;P2;durP2;ratioP2
20042;SDS011;10182;52.896;6.496;2023-07-28T00:04:07;25.67;;;18.60;;
20042;SDS011;10182;52.896;6.496;2023-07-28T00:09:10;29.30;;;19.03;;
20042;SDS011;10182;52.896;6.496;2023-07-28T00:14:12;23.87;;;17.30;;
20042;SDS011;10182;52.896;6.496;2023-07-28T00:19:15;24.53;;;17.63;;
20042;SDS011;10182;52.896;6.496;2023-07-28T00:24:17;28.40;;;18.43;;
20042;SDS011;10182;52.896;6.496;2023-07-28T00:29:19;31.13;;;20.33;;
20042;SDS011;10182;52.896;6.496;2023-07-28T00:34:22;31.50;;;21.57;;
20042;SDS011;10182;52.896;6.496;2023-07-28T00:39:24;31.43;;;21.67;;
20042;SDS011;10182;52.896;6.496;2023-07-28T00:44:26;30.07;;;20.47;;
20042;SDS011;10182;52.896;6.496;2023-07-28T00:49:29;31.93;;;20.87;;
20042;SDS011;10182;52.896;6.496;2023-07-28T00:54:31;27.87;;;20.73;;
20042;SDS011;10182;52.896;6.496;2023-07-28T00:59:33;28.97;;;20.20;;
20042;SDS011;10182;52.896;6.496;2023-07-28T01:04:36;36.23;;;22.27;;
20042;SDS011;10182;52.896;6.496;2023-07-28T01:09:40;33.10;;;22.20;;
20042;SDS011;10182;52.896;6.496;2023-07-28T01:14:47;35.57;;;22.67;;
20042;SDS011;10182;52.896;6.496;2023-07-28T01:19:51;30.70;;;22.77;;
20042;SDS011;10182;52.896;6.496;2023-07-28T01:24:55;36.27;;;23.43;;
20042;SDS011;10182;52.896;6.496;2023-07-28T01:30:07;34.70;;;22.23;;
20042;SDS011;10182;52.896;6.496;2023-07-28T01:35:09;36.37;;;23.97;;
20042;SDS011;10182;52.896;6.496;2023-07-28T01:40:11;45.87;;;23.47;;
20042;SDS011;10182;52.896;6.496;2023-07-28T01:45:14;45.87;;;24.90;;
20042;SDS011;10182;52.896;6.496;2023-07-28T01:50:16;42.03;;;24.97;;
20042;SDS011;10182;52.896;6.496;2023-07-28T01:55:17;39.10;;;24.17;;
20042;SDS011;10182;52.896;6.496;2023-07-28T02:00:20;49.67;;;27.50;;
20042;SDS011;10182;52.896;6.496;2023-07-28T02:05:22;45.17;;;25.77;;
20042;SDS011;10182;52.896;6.496;2023-07-28T02:10:25;46.53;;;24.97;;
20042;SDS011;10182;52.896;6.496;2023-07-28T02:15:28;41.23;;;25.53;;
20042;SDS011;10182;52.896;6.496;2023-07-28T02:20:30;39.23;;;23.63;;
20042;SDS011;10182;52.896;6.496;2023-07-28T02:25:33;38.50;;;23.83;;
20042;SDS011;10182;52.896;6.496;2023-07-28T02:30:36;34.63;;;23.57;;
20042;SDS011;10182;52.896;6.496;2023-07-28T02:35:38;35.37;;;23.60;;
20042;SDS011;10182;52.896;6.496;2023-07-28T02:40:39;33.27;;;23.50;;
20042;SDS011;10182;52.896;6.496;2023-07-28T02:45:43;35.77;;;22.83;;
20042;SDS011;10182;52.896;6.496;2023-07-28T02:50:45;41.50;;;22.53;;
20042;SDS011;10182;52.896;6.496;2023-07-28T02:55:47;34.30;;;21.67;;
20042;SDS011;10182;52.896;6.496;2023-07-28T03:00:51;35.17;;;22.90;;
20042;SDS011;10182;52.896;6.496;2023-07-28T03:05:53;36.27;;;23.70;;
20042;SDS011;10182;52.896;6.496;2023-07-28T03:10:56;40.23;;;25.83;;
20042;SDS011;10182;52.896;6.496;2023-07-28T03:15:59;42.77;;;26.70;;
20042;SDS011;10182;52.896;6.496;2023-07-28T03:21:01;35.67;;;25.20;;
20042;SDS011;10182;52.896;6.496;2023-07-28T03:26:02;39.10;;;24.40;;
20042;SDS011;10182;52.896;6.496;2023-07-28T03:31:05;35.80;;;23.20;;
20042;SDS011;10182;52.896;6.496;2023-07-28T03:36:07;37.43;;;25.30;;
20042;SDS011;10182;52.896;6.496;2023-07-28T03:41:09;39.73;;;26.07;;
20042;SDS011;10182;52.896;6.496;2023-07-28T03:46:12;40.10;;;26.03;;
20042;SDS011;10182;52.896;6.496;2023-07-28T03:51:14;39.13;;;25.00;;
20042;SDS011;10182;52.896;6.496;2023-07-28T03:56:15;39.00;;;25.57;;
20042;SDS011;10182;52.896;6.496;2023-07-28T04:01:18;36.70;;;23.60;;
20042;SDS011;10182;52.896;6.496;2023-07-28T04:06:34;29.93;;;21.57;;
20042;SDS011;10182;52.896;6.496;2023-07-28T04:11:40;33.83;;;23.90;;
20042;SDS011;10182;52.896;6.496;2023-07-28T04:16:44;35.27;;;24.17;;
20042;SDS011;10182;52.896;6.496;2023-07-28T04:21:45;35.90;;;24.13;;
20042;SDS011;10182;52.896;6.496;2023-07-28T04:26:47;41.27;;;23.37;;
20042;SDS011;10182;52.896;6.496;2023-07-28T04:31:51;34.83;;;22.10;;
20042;SDS011;10182;52.896;6.496;2023-07-28T04:36:53;32.80;;;22.90;;
20042;SDS011;10182;52.896;6.496;2023-07-28T04:41:54;43.50;;;23.40;;
20042;SDS011;10182;52.896;6.496;2023-07-28T04:46:58;40.30;;;24.97;;
20042;SDS011;10182;52.896;6.496;2023-07-28T04:52:00;39.60;;;23.93;;
20042;SDS011;10182;52.896;6.496;2023-07-28T04:57:01;33.67;;;22.33;;
20042;SDS011;10182;52.896;6.496;2023-07-28T05:02:05;39.23;;;23.17;;
20042;SDS011;10182;52.896;6.496;2023-07-28T05:07:07;36.53;;;21.40;;
20042;SDS011;10182;52.896;6.496;2023-07-28T05:12:09;34.77;;;24.00;;
20042;SDS011;10182;52.896;6.496;2023-07-28T05:17:12;40.03;;;23.60;;
20042;SDS011;10182;52.896;6.496;2023-07-28T05:22:13;40.93;;;24.53;;
20042;SDS011;10182;52.896;6.496;2023-07-28T05:27:15;42.07;;;25.20;;
20042;SDS011;10182;52.896;6.496;2023-07-28T05:32:18;32.83;;;23.10;;
20042;SDS011;10182;52.896;6.496;2023-07-28T05:37:20;37.67;;;23.77;;
20042;SDS011;10182;52.896;6.496;2023-07-28T05:42:21;32.73;;;23.63;;
20042;SDS011;10182;52.896;6.496;2023-07-28T05:47:27;37.07;;;23.53;;
20042;SDS011;10182;52.896;6.496;2023-07-28T05:52:29;34.00;;;23.60;;
20042;SDS011;10182;52.896;6.496;2023-07-28T05:57:31;33.87;;;23.70;;
20042;SDS011;10182;52.896;6.496;2023-07-28T06:02:34;37.87;;;24.70;;
20042;SDS011;10182;52.896;6.496;2023-07-28T06:07:35;34.77;;;23.23;;
20042;SDS011;10182;52.896;6.496;2023-07-28T06:12:37;36.70;;;22.53;;
20042;SDS011;10182;52.896;6.496;2023-07-28T06:17:40;31.90;;;22.23;;
20042;SDS011;10182;52.896;6.496;2023-07-28T06:22:42;33.03;;;21.93;;
20042;SDS011;10182;52.896;6.496;2023-07-28T06:27:44;28.23;;;20.20;;
20042;SDS011;10182;52.896;6.496;2023-07-28T06:32:47;23.87;;;20.00;;
20042;SDS011;10182;52.896;6.496;2023-07-28T06:37:49;26.50;;;16.43;;
20042;SDS011;10182;52.896;6.496;2023-07-28T06:42:51;18.43;;;15.93;;
20042;SDS011;10182;52.896;6.496;2023-07-28T06:47:54;18.90;;;14.83;;
20042;SDS011;10182;52.896;6.496;2023-07-28T06:52:56;21.47;;;15.40;;
20042;SDS011;10182;52.896;6.496;2023-07-28T06:57:57;19.40;;;15.90;;
20042;SDS011;10182;52.896;6.496;2023-07-28T07:03:00;20.33;;;15.20;;
20042;SDS011;10182;52.896;6.496;2023-07-28T07:08:02;25.27;;;15.53;;
20042;SDS011;10182;52.896;6.496;2023-07-28T07:13:05;17.87;;;14.23;;
20042;SDS011;10182;52.896;6.496;2023-07-28T07:18:08;20.23;;;13.60;;
20042;SDS011;10182;52.896;6.496;2023-07-28T07:23:10;20.13;;;13.33;;
20042;SDS011;10182;52.896;6.496;2023-07-28T07:28:11;14.40;;;10.53;;
20042;SDS011;10182;52.896;6.496;2023-07-28T07:33:14;13.20;;;10.73;;
20042;SDS011;10182;52.896;6.496;2023-07-28T07:38:16;11.50;;;10.30;;
20042;SDS011;10182;52.896;6.496;2023-07-28T07:43:18;11.23;;;10.07;;
20042;SDS011;10182;52.896;6.496;2023-07-28T07:48:21;13.10;;;10.77;;
20042;SDS011;10182;52.896;6.496;2023-07-28T07:53:23;12.80;;;10.73;;
20042;SDS011;10182;52.896;6.496;2023-07-28T07:58:25;14.83;;;10.97;;
20042;SDS011;10182;52.896;6.496;2023-07-28T08:03:29;13.13;;;9.47;;
20042;SDS011;10182;52.896;6.496;2023-07-28T08:08:31;12.90;;;9.50;;
20042;SDS011;10182;52.896;6.496;2023-07-28T08:13:33;11.60;;;9.57;;
20042;SDS011;10182;52.896;6.496;2023-07-28T08:18:36;12.77;;;9.47;;
20042;SDS011;10182;52.896;6.496;2023-07-28T08:23:38;11.13;;;9.90;;
20042;SDS011;10182;52.896;6.496;2023-07-28T08:28:40;11.53;;;10.13;;
20042;SDS011;10182;52.896;6.496;2023-07-28T08:33:43;9.37;;;8.13;;
20042;SDS011;10182;52.896;6.496;2023-07-28T08:38:44;14.13;;;9.13;;
20042;SDS011;10182;52.896;6.496;2023-07-28T08:43:46;12.27;;;9.43;;
20042;SDS011;10182;52.896;6.496;2023-07-28T08:48:49;11.67;;;8.33;;
20042;SDS011;10182;52.896;6.496;2023-07-28T08:53:51;9.50;;;7.60;;
20042;SDS011;10182;52.896;6.496;2023-07-28T08:58:57;9.20;;;7.90;;
20042;SDS011;10182;52.896;6.496;2023-07-28T09:04:01;11.50;;;7.03;;
20042;SDS011;10182;52.896;6.496;2023-07-28T09:09:05;10.27;;;6.93;;
20042;SDS011;10182;52.896;6.496;2023-07-28T09:14:10;5.20;;;4.70;;
20042;SDS011;10182;52.896;6.496;2023-07-28T09:19:14;7.07;;;5.50;;
20042;SDS011;10182;52.896;6.496;2023-07-28T09:24:15;9.67;;;6.90;;
20042;SDS011;10182;52.896;6.496;2023-07-28T09:29:18;5.10;;;3.87;;
20042;SDS011;10182;52.896;6.496;2023-07-28T09:34:25;4.73;;;4.33;;
20042;SDS011;10182;52.896;6.496;2023-07-28T09:39:27;5.80;;;4.00;;
20042;SDS011;10182;52.896;6.496;2023-07-28T09:44:29;6.70;;;3.80;;
20042;SDS011;10182;52.896;6.496;2023-07-28T09:49:34;5.40;;;3.90;;
20042;SDS011;10182;52.896;6.496;2023-07-28T09:54:38;5.17;;;3.67;;
20042;SDS011;10182;52.896;6.496;2023-07-28T09:59:41;5.07;;;4.07;;
20042;SDS011;10182;52.896;6.496;2023-07-28T10:04:45;5.87;;;4.20;;
20042;SDS011;10182;52.896;6.496;2023-07-28T10:09:48;6.60;;;4.10;;
20042;SDS011;10182;52.896;6.496;2023-07-28T10:14:52;7.70;;;4.33;;
20042;SDS011;10182;52.896;6.496;2023-07-28T10:20:04;7.67;;;4.83;;
20042;SDS011;10182;52.896;6.496;2023-07-28T10:25:08;5.20;;;4.43;;
20042;SDS011;10182;52.896;6.496;2023-07-28T10:30:11;6.20;;;4.90;;
20042;SDS011;10182;52.896;6.496;2023-07-28T10:35:22;6.73;;;4.80;;
20042;SDS011;10182;52.896;6.496;2023-07-28T10:40:28;7.27;;;4.70;;
20042;SDS011;10182;52.896;6.496;2023-07-28T10:45:32;6.17;;;4.80;;
20042;SDS011;10182;52.896;6.496;2023-07-28T10:50:35;7.53;;;5.40;;
20042;SDS011;10182;52.896;6.496;2023-07-28T10:55:37;14.23;;;6.37;;
20042;SDS011;10182;52.896;6.496;2023-07-28T11:00:40;8.83;;;7.00;;
20042;SDS011;10182;52.896;6.496;2023-07-28T11:05:43;8.50;;;7.60;;
20042;SDS011;10182;52.896;6.496;2023-07-28T11:10:45;11.00;;;6.97;;
20042;SDS011;10182;52.896;6.496;2023-07-28T11:15:47;7.27;;;6.57;;
20042;SDS011;10182;52.896;6.496;2023-07-28T11:20:50;7.80;;;7.00;;
20042;SDS011;10182;52.896;6.496;2023-07-28T11:25:52;12.83;;;8.93;;
20042;SDS011;10182;52.896;6.496;2023-07-28T11:30:53;10.77;;;9.77;;
20042;SDS011;10182;52.896;6.496;2023-07-28T11:35:56;16.40;;;13.27;;
20042;SDS011;10182;52.896;6.496;2023-07-28T11:40:58;13.87;;;12.63;;
20042;SDS011;10182;52.896;6.496;2023-07-28T11:46:00;17.67;;;14.70;;
20042;SDS011;10182;52.896;6.496;2023-07-28T11:51:03;16.43;;;14.73;;
20042;SDS011;10182;52.896;6.496;2023-07-28T11:56:05;14.20;;;12.70;;
20042;SDS011;10182;52.896;6.496;2023-07-28T12:01:07;16.57;;;11.73;;
20042;SDS011;10182;52.896;6.496;2023-07-28T12:06:11;11.13;;;10.00;;
20042;SDS011;10182;52.896;6.496;2023-07-28T12:11:13;10.33;;;9.37;;
20042;SDS011;10182;52.896;6.496;2023-07-28T12:16:38;11.97;;;8.47;;
20042;SDS011;10182;52.896;6.496;2023-07-28T12:21:42;11.43;;;10.30;;
20042;SDS011;10182;52.896;6.496;2023-07-28T12:26:45;14.73;;;8.90;;
20042;SDS011;10182;52.896;6.496;2023-07-28T12:31:48;11.23;;;10.00;;
20042;SDS011;10182;52.896;6.496;2023-07-28T12:36:51;10.23;;;8.70;;
20042;SDS011;10182;52.896;6.496;2023-07-28T12:41:52;10.90;;;9.73;;
20042;SDS011;10182;52.896;6.496;2023-07-28T12:46:54;10.20;;;9.30;;
20042;SDS011;10182;52.896;6.496;2023-07-28T12:51:58;12.03;;;8.90;;
20042;SDS011;10182;52.896;6.496;2023-07-28T12:57:00;10.70;;;9.80;;
20042;SDS011;10182;52.896;6.496;2023-07-28T13:02:02;11.83;;;9.57;;
20042;SDS011;10182;52.896;6.496;2023-07-28T13:07:06;10.10;;;9.20;;
20042;SDS011;10182;52.896;6.496;2023-07-28T13:12:08;11.90;;;9.40;;
20042;SDS011;10182;52.896;6.496;2023-07-28T13:17:09;9.20;;;7.97;;
20042;SDS011;10182;52.896;6.496;2023-07-28T13:22:14;11.93;;;9.73;;
20042;SDS011;10182;52.896;6.496;2023-07-28T13:27:15;8.70;;;7.73;;
20042;SDS011;10182;52.896;6.496;2023-07-28T13:32:18;10.27;;;9.27;;
20042;SDS011;10182;52.896;6.496;2023-07-28T13:37:25;9.50;;;8.57;;
20042;SDS011;10182;52.896;6.496;2023-07-28T13:42:27;5.60;;;5.10;;
20042;SDS011;10182;52.896;6.496;2023-07-28T13:47:29;6.77;;;6.10;;
20042;SDS011;10182;52.896;6.496;2023-07-28T13:52:32;6.60;;;5.57;;
20042;SDS011;10182;52.896;6.496;2023-07-28T13:57:33;6.60;;;5.60;;
20042;SDS011;10182;52.896;6.496;2023-07-28T14:02:35;7.00;;;5.87;;
20042;SDS011;10182;52.896;6.496;2023-07-28T14:07:38;8.40;;;6.17;;
20042;SDS011;10182;52.896;6.496;2023-07-28T14:12:40;9.20;;;8.30;;
20042;SDS011;10182;52.896;6.496;2023-07-28T14:17:42;9.17;;;8.13;;
20042;SDS011;10182;52.896;6.496;2023-07-28T14:22:45;7.57;;;6.83;;
20042;SDS011;10182;52.896;6.496;2023-07-28T14:27:47;9.50;;;8.60;;
20042;SDS011;10182;52.896;6.496;2023-07-28T14:32:48;6.70;;;6.10;;
20042;SDS011;10182;52.896;6.496;2023-07-28T14:37:51;6.23;;;5.67;;
20042;SDS011;10182;52.896;6.496;2023-07-28T14:42:53;8.20;;;6.83;;
20042;SDS011;10182;52.896;6.496;2023-07-28T14:47:55;7.70;;;7.00;;
20042;SDS011;10182;52.896;6.496;2023-07-28T14:52:58;9.23;;;7.07;;
20042;SDS011;10182;52.896;6.496;2023-07-28T14:58:00;7.50;;;6.80;;
20042;SDS011;10182;52.896;6.496;2023-07-28T15:03:02;9.37;;;6.80;;
20042;SDS011;10182;52.896;6.496;2023-07-28T15:08:05;6.07;;;5.57;;
20042;SDS011;10182;52.896;6.496;2023-07-28T15:13:07;6.30;;;5.20;;
20042;SDS011;10182;52.896;6.496;2023-07-28T15:18:09;6.30;;;5.67;;
20042;SDS011;10182;52.896;6.496;2023-07-28T15:23:12;6.43;;;5.30;;
20042;SDS011;10182;52.896;6.496;2023-07-28T15:28:14;6.67;;;6.07;;
20042;SDS011;10182;52.896;6.496;2023-07-28T15:33:17;7.67;;;6.67;;
20042;SDS011;10182;52.896;6.496;2023-07-28T15:38:20;7.80;;;6.70;;
20042;SDS011;10182;52.896;6.496;2023-07-28T15:43:22;7.27;;;6.60;;
20042;SDS011;10182;52.896;6.496;2023-07-28T15:48:24;8.50;;;6.90;;
20042;SDS011;10182;52.896;6.496;2023-07-28T15:53:27;6.87;;;6.27;;
20042;SDS011;10182;52.896;6.496;2023-07-28T15:58:29;6.83;;;6.13;;
20042;SDS011;10182;52.896;6.496;2023-07-28T16:03:30;5.63;;;5.23;;
20042;SDS011;10182;52.896;6.496;2023-07-28T16:08:33;6.00;;;5.40;;
20042;SDS011;10182;52.896;6.496;2023-07-28T16:13:35;6.77;;;5.83;;
20042;SDS011;10182;52.896;6.496;2023-07-28T16:18:37;5.80;;;4.80;;
20042;SDS011;10182;52.896;6.496;2023-07-28T16:23:40;6.03;;;4.80;;
20042;SDS011;10182;52.896;6.496;2023-07-28T16:28:42;7.07;;;6.20;;
20042;SDS011;10182;52.896;6.496;2023-07-28T16:33:44;7.30;;;5.10;;
20042;SDS011;10182;52.896;6.496;2023-07-28T16:38:47;7.73;;;5.30;;
20042;SDS011;10182;52.896;6.496;2023-07-28T16:43:49;5.60;;;5.10;;
20042;SDS011;10182;52.896;6.496;2023-07-28T16:48:50;4.77;;;3.70;;
20042;SDS011;10182;52.896;6.496;2023-07-28T16:53:53;4.93;;;4.33;;
20042;SDS011;10182;52.896;6.496;2023-07-28T16:58:55;6.03;;;4.20;;
20042;SDS011;10182;52.896;6.496;2023-07-28T17:03:57;4.17;;;3.87;;
20042;SDS011;10182;52.896;6.496;2023-07-28T17:09:00;4.00;;;3.33;;
20042;SDS011;10182;52.896;6.496;2023-07-28T17:14:01;3.50;;;3.20;;
20042;SDS011;10182;52.896;6.496;2023-07-28T17:19:03;4.17;;;3.77;;
20042;SDS011;10182;52.896;6.496;2023-07-28T17:24:06;5.50;;;3.90;;
20042;SDS011;10182;52.896;6.496;2023-07-28T17:29:08;3.30;;;3.00;;
20042;SDS011;10182;52.896;6.496;2023-07-28T17:34:09;3.77;;;3.20;;
20042;SDS011;10182;52.896;6.496;2023-07-28T17:39:12;4.87;;;3.37;;
20042;SDS011;10182;52.896;6.496;2023-07-28T17:44:14;5.50;;;3.77;;
20042;SDS011;10182;52.896;6.496;2023-07-28T17:49:16;3.97;;;3.57;;
20042;SDS011;10182;52.896;6.496;2023-07-28T17:54:19;4.07;;;3.73;;
20042;SDS011;10182;52.896;6.496;2023-07-28T17:59:20;6.33;;;3.90;;
20042;SDS011;10182;52.896;6.496;2023-07-28T18:04:22;6.10;;;4.37;;
20042;SDS011;10182;52.896;6.496;2023-07-28T18:09:25;5.97;;;4.33;;
20042;SDS011;10182;52.896;6.496;2023-07-28T18:14:27;8.70;;;4.90;;
20042;SDS011;10182;52.896;6.496;2023-07-28T18:19:29;6.20;;;5.57;;
20042;SDS011;10182;52.896;6.496;2023-07-28T18:24:32;4.80;;;3.87;;
20042;SDS011;10182;52.896;6.496;2023-07-28T18:29:33;5.70;;;4.53;;
20042;SDS011;10182;52.896;6.496;2023-07-28T18:34:35;5.87;;;4.43;;
20042;SDS011;10182;52.896;6.496;2023-07-28T18:39:38;5.90;;;4.20;;
20042;SDS011;10182;52.896;6.496;2023-07-28T18:44:40;6.90;;;3.97;;
20042;SDS011;10182;52.896;6.496;2023-07-28T18:49:42;5.37;;;4.80;;
20042;SDS011;10182;52.896;6.496;2023-07-28T18:54:45;5.57;;;4.93;;
20042;SDS011;10182;52.896;6.496;2023-07-28T18:59:47;7.13;;;4.40;;
20042;SDS011;10182;52.896;6.496;2023-07-28T19:04:49;5.80;;;4.90;;
20042;SDS011;10182;52.896;6.496;2023-07-28T19:09:54;5.73;;;4.87;;
20042;SDS011;10182;52.896;6.496;2023-07-28T19:14:56;6.23;;;4.13;;
20042;SDS011;10182;52.896;6.496;2023-07-28T19:19:58;6.60;;;5.30;;
20042;SDS011;10182;52.896;6.496;2023-07-28T19:25:01;7.57;;;4.77;;
20042;SDS011;10182;52.896;6.496;2023-07-28T19:30:04;6.63;;;4.97;;
20042;SDS011;10182;52.896;6.496;2023-07-28T19:35:07;6.70;;;5.20;;
20042;SDS011;10182;52.896;6.496;2023-07-28T19:40:11;5.37;;;4.90;;
20042;SDS011;10182;52.896;6.496;2023-07-28T19:45:12;5.90;;;5.27;;
20042;SDS011;10182;52.896;6.496;2023-07-28T19:50:14;7.40;;;6.60;;
20042;SDS011;10182;52.896;6.496;2023-07-28T19:55:17;7.77;;;6.43;;
20042;SDS011;10182;52.896;6.496;2023-07-28T20:00:19;8.97;;;7.73;;
20042;SDS011;10182;52.896;6.496;2023-07-28T20:05:21;12.13;;;8.93;;
20042;SDS011;10182;52.896;6.496;2023-07-28T20:10:24;11.80;;;9.33;;
20042;SDS011;10182;52.896;6.496;2023-07-28T20:15:26;11.20;;;10.07;;
20042;SDS011;10182;52.896;6.496;2023-07-28T20:20:28;10.17;;;9.07;;
20042;SDS011;10182;52.896;6.496;2023-07-28T20:25:31;13.10;;;10.30;;
20042;SDS011;10182;52.896;6.496;2023-07-28T20:30:35;10.50;;;9.47;;
20042;SDS011;10182;52.896;6.496;2023-07-28T20:35:36;11.53;;;10.00;;
20042;SDS011;10182;52.896;6.496;2023-07-28T20:40:41;11.53;;;10.17;;
20042;SDS011;10182;52.896;6.496;2023-07-28T20:45:43;10.43;;;9.33;;
20042;SDS011;10182;52.896;6.496;2023-07-28T20:50:44;10.33;;;7.97;;
20042;SDS011;10182;52.896;6.496;2023-07-28T20:55:48;8.87;;;8.03;;
20042;SDS011;10182;52.896;6.496;2023-07-28T21:00:50;8.20;;;7.03;;
20042;SDS011;10182;52.896;6.496;2023-07-28T21:05:52;7.37;;;6.67;;
20042;SDS011;10182;52.896;6.496;2023-07-28T21:10:56;8.00;;;7.10;;
20042;SDS011;10182;52.896;6.496;2023-07-28T21:15:58;7.80;;;7.10;;
20042;SDS011;10182;52.896;6.496;2023-07-28T21:21:00;7.07;;;5.50;;
20042;SDS011;10182;52.896;6.496;2023-07-28T21:26:04;7.30;;;6.40;;
20042;SDS011;10182;52.896;6.496;2023-07-28T21:31:06;10.30;;;6.17;;
20042;SDS011;10182;52.896;6.496;2023-07-28T21:36:08;6.57;;;5.97;;
20042;SDS011;10182;52.896;6.496;2023-07-28T21:41:11;9.80;;;6.47;;
20042;SDS011;10182;52.896;6.496;2023-07-28T21:46:13;7.23;;;6.37;;
20042;SDS011;10182;52.896;6.496;2023-07-28T21:51:15;7.10;;;6.33;;
20042;SDS011;10182;52.896;6.496;2023-07-28T21:56:18;8.33;;;7.63;;
20042;SDS011;10182;52.896;6.496;2023-07-28T22:01:20;10.10;;;9.03;;
20042;SDS011;10182;52.896;6.496;2023-07-28T22:06:21;11.57;;;9.03;;
20042;SDS011;10182;52.896;6.496;2023-07-28T22:11:24;10.03;;;9.03;;
20042;SDS011;10182;52.896;6.496;2023-07-28T22:16:26;10.93;;;8.70;;
20042;SDS011;10182;52.896;6.496;2023-07-28T22:21:28;10.23;;;9.20;;
20042;SDS011;10182;52.896;6.496;2023-07-28T22:26:31;10.20;;;9.10;;
20042;SDS011;10182;52.896;6.496;2023-07-28T22:31:32;12.20;;;10.77;;
20042;SDS011;10182;52.896;6.496;2023-07-28T22:36:34;12.67;;;10.47;;
20042;SDS011;10182;52.896;6.496;2023-07-28T22:41:37;12.53;;;10.40;;
20042;SDS011;10182;52.896;6.496;2023-07-28T22:46:39;9.50;;;8.47;;
20042;SDS011;10182;52.896;6.496;2023-07-28T22:51:41;9.93;;;8.63;;
20042;SDS011;10182;52.896;6.496;2023-07-28T22:56:44;11.73;;;10.53;;
20042;SDS011;10182;52.896;6.496;2023-07-28T23:01:45;11.87;;;10.67;;
20042;SDS011;10182;52.896;6.496;2023-07-28T23:06:47;11.63;;;10.43;;
20042;SDS011;10182;52.896;6.496;2023-07-28T23:11:50;12.17;;;10.83;;
20042;SDS011;10182;52.896;6.496;2023-07-28T23:16:53;13.33;;;10.67;;
20042;SDS011;10182;52.896;6.496;2023-07-28T23:21:55;11.97;;;10.57;;
20042;SDS011;10182;52.896;6.496;2023-07-28T23:26:58;11.93;;;10.83;;
20042;SDS011;10182;52.896;6.496;2023-07-28T23:31:59;12.27;;;11.07;;
20042;SDS011;10182;52.896;6.496;2023-07-28T23:37:02;12.93;;;11.73;;
20042;SDS011;10182;52.896;6.496;2023-07-28T23:42:06;11.87;;;10.23;;
20042;SDS011;10182;52.896;6.496;2023-07-28T23:47:08;13.00;;;11.70;;
20042;SDS011;10182;52.896;6.496;2023-07-28T23:52:10;12.13;;;10.87;;
20042;SDS011;10182;52.896;6.496;2023-07-28T23:57:13;12.07;;;10.57;;
